createdAt,value
2022-11-15T00:00:54.010Z,9.60
2022-11-15T00:03:26.512Z,9.60
2022-11-15T00:05:54.017Z,9.60
2022-11-15T00:08:20.978Z,9.60
2022-11-15T00:10:59.016Z,9.60
2022-11-15T00:13:26.107Z,9.60
2022-11-15T00:15:53.129Z,9.60
2022-11-15T00:18:20.618Z,9.60
2022-11-15T00:20:47.442Z,9.60
2022-11-15T00:23:14.260Z,9.60
2022-11-15T00:25:41.426Z,9.60
2022-11-15T00:28:08.556Z,9.60
2022-11-15T00:30:35.852Z,9.50
2022-11-15T00:33:04.440Z,9.50
2022-11-15T00:35:34.569Z,9.50
2022-11-15T00:38:02.510Z,9.50
2022-11-15T00:40:29.571Z,9.40
2022-11-15T00:42:56.504Z,9.50
2022-11-15T00:45:23.896Z,9.50
2022-11-15T00:47:50.907Z,9.50
2022-11-15T00:50:18.256Z,9.50
2022-11-15T00:52:45.817Z,9.50
2022-11-15T00:55:17.709Z,9.50
2022-11-15T00:57:44.769Z,9.50
2022-11-15T01:00:12.244Z,9.50
2022-11-15T01:02:39.366Z,9.50
2022-11-15T01:05:06.671Z,9.50
2022-11-15T01:07:33.655Z,9.50
2022-11-15T01:10:00.494Z,9.50
2022-11-15T01:12:27.362Z,9.50
2022-11-15T01:14:54.215Z,9.50
2022-11-15T01:17:21.297Z,9.50
2022-11-15T01:19:48.137Z,9.40
2022-11-15T01:22:14.946Z,9.50
2022-11-15T01:24:41.786Z,9.40
2022-11-15T01:27:08.782Z,9.50
2022-11-15T01:29:35.896Z,9.50
2022-11-15T01:32:02.936Z,9.50
2022-11-15T01:34:29.836Z,9.40
2022-11-15T01:36:56.632Z,9.40
2022-11-15T01:39:23.521Z,9.40
2022-11-15T01:41:50.365Z,9.30
2022-11-15T01:44:50.761Z,9.30
2022-11-15T01:47:31.541Z,9.30
2022-11-15T01:50:10.897Z,9.30
2022-11-15T01:52:40.480Z,9.30
2022-11-15T01:55:21.238Z,9.20
2022-11-15T01:57:51.885Z,9.20
2022-11-15T02:00:19.050Z,9.30
2022-11-15T02:02:45.946Z,9.30
2022-11-15T02:05:13.139Z,9.30
2022-11-15T02:07:40.447Z,9.30
2022-11-15T02:10:21.375Z,9.30
2022-11-15T02:12:49.690Z,9.30
2022-11-15T02:15:17.104Z,9.30
2022-11-15T02:18:00.970Z,9.20
2022-11-15T02:24:48.096Z,9.30
2022-11-15T02:27:52.718Z,9.20
2022-11-15T02:30:28.414Z,9.20
2022-11-15T02:33:16.986Z,9.20
2022-11-15T02:36:07.005Z,9.20
2022-11-15T02:39:02.606Z,9.10
2022-11-15T02:41:55.151Z,9.10
2022-11-15T02:44:35.686Z,9.00
2022-11-15T02:47:16.182Z,9.00
2022-11-15T02:49:48.585Z,8.90
2022-11-15T02:52:21.078Z,8.90
2022-11-15T02:54:58.801Z,8.90
2022-11-15T02:57:31.538Z,8.80
2022-11-15T03:00:11.672Z,8.80
2022-11-15T03:02:50.180Z,8.80
2022-11-15T03:05:21.003Z,8.70
2022-11-15T03:08:01.835Z,8.70
2022-11-15T03:11:03.869Z,8.60
2022-11-15T03:13:55.233Z,8.60
2022-11-15T03:16:32.583Z,8.60
2022-11-15T03:19:20.751Z,8.50
2022-11-15T03:21:48.644Z,8.50
2022-11-15T03:24:19.769Z,8.50
2022-11-15T03:26:50.849Z,8.50
2022-11-15T03:29:30.538Z,8.50
2022-11-15T03:32:03.000Z,8.50
2022-11-15T03:35:00.177Z,8.40
2022-11-15T03:37:56.994Z,8.40
2022-11-15T03:40:31.595Z,8.40
2022-11-15T03:43:22.208Z,8.30
2022-11-15T03:45:57.214Z,8.30
2022-11-15T03:48:31.883Z,8.30
2022-11-15T03:50:58.819Z,8.30
2022-11-15T03:53:25.771Z,8.30
2022-11-15T03:55:52.589Z,8.20
2022-11-15T03:58:19.427Z,8.20
2022-11-15T04:00:46.362Z,8.20
2022-11-15T04:03:13.182Z,8.20
2022-11-15T04:05:39.984Z,8.10
2022-11-15T04:08:06.857Z,8.10
2022-11-15T04:10:33.759Z,8.10
2022-11-15T04:13:00.572Z,8.00
2022-11-15T04:15:27.405Z,8.00
2022-11-15T04:17:57.270Z,7.90
2022-11-15T04:20:48.205Z,7.90
2022-11-15T04:23:38.705Z,7.90
2022-11-15T04:26:15.599Z,7.90
2022-11-15T04:29:01.415Z,7.80
2022-11-15T04:31:28.424Z,7.80
2022-11-15T04:33:55.548Z,7.80
2022-11-15T04:36:41.472Z,7.80
2022-11-15T04:39:08.504Z,7.80
2022-11-15T04:41:35.308Z,7.80
2022-11-15T04:44:02.179Z,7.70
2022-11-15T04:46:29.064Z,7.80
2022-11-15T04:48:58.835Z,7.70
2022-11-15T04:51:26.496Z,7.60
2022-11-15T04:53:53.546Z,7.60
2022-11-15T04:56:20.909Z,7.50
2022-11-15T04:58:50.773Z,7.60
2022-11-15T05:01:17.934Z,7.50
2022-11-15T05:04:04.489Z,7.50
2022-11-15T05:06:31.830Z,7.50
2022-11-15T05:08:58.780Z,7.50
2022-11-15T05:11:26.443Z,7.50
2022-11-15T05:13:53.323Z,7.50
2022-11-15T05:16:20.376Z,7.40
2022-11-15T05:18:47.272Z,7.40
2022-11-15T05:21:15.783Z,7.40
2022-11-15T05:23:42.935Z,7.30
2022-11-15T05:26:10.358Z,7.30
2022-11-15T05:28:37.778Z,7.30
2022-11-15T05:31:05.762Z,7.30
2022-11-15T05:33:33.560Z,7.20
2022-11-15T05:36:18.757Z,7.20
2022-11-15T05:38:47.153Z,7.20
2022-11-15T05:41:15.904Z,7.10
2022-11-15T05:43:44.021Z,7.10
2022-11-15T05:46:11.652Z,7.10
2022-11-15T05:48:40.803Z,7.10
2022-11-15T05:51:08.695Z,7.10
2022-11-15T05:53:37.737Z,7.10
2022-11-15T05:56:06.691Z,7.00
2022-11-15T05:58:38.264Z,7.00
2022-11-15T06:01:05.888Z,7.00
2022-11-15T06:03:33.187Z,7.00
2022-11-15T06:06:00.192Z,6.90
2022-11-15T06:08:26.993Z,6.90
2022-11-15T06:10:53.927Z,6.90
2022-11-15T06:13:20.821Z,6.90
2022-11-15T06:15:47.822Z,6.90
2022-11-15T06:18:14.661Z,6.90
2022-11-15T06:20:41.662Z,6.90
2022-11-15T06:23:08.466Z,6.90
2022-11-15T06:25:35.272Z,6.90
2022-11-15T06:28:02.095Z,6.90
2022-11-15T06:30:29.024Z,6.90
2022-11-15T06:33:04.066Z,6.90
2022-11-15T06:35:31.792Z,6.90
2022-11-15T06:38:07.919Z,6.90
2022-11-15T06:40:39.015Z,7.00
2022-11-15T06:43:06.900Z,7.10
2022-11-15T06:45:34.042Z,7.10
2022-11-15T06:48:00.861Z,7.20
2022-11-15T06:50:27.726Z,7.30
2022-11-15T06:52:55.665Z,7.30
2022-11-15T06:55:22.539Z,7.30
2022-11-15T06:57:53.238Z,7.20
2022-11-15T07:00:21.961Z,7.20
2022-11-15T07:02:49.175Z,7.30
2022-11-15T07:05:16.850Z,7.30
2022-11-15T07:07:43.941Z,7.30
2022-11-15T07:10:11.051Z,7.30
2022-11-15T07:12:37.921Z,7.30
2022-11-15T07:15:05.187Z,7.30
2022-11-15T07:17:31.991Z,7.30
2022-11-15T07:19:58.858Z,7.30
2022-11-15T07:22:25.766Z,7.40
2022-11-15T07:24:52.614Z,7.30
2022-11-15T07:27:19.684Z,7.40
2022-11-15T07:29:46.878Z,7.30
2022-11-15T07:32:13.696Z,7.30
2022-11-15T07:34:40.513Z,7.40
2022-11-15T07:37:07.348Z,7.30
2022-11-15T07:39:34.206Z,7.30
2022-11-15T07:42:19.718Z,7.30
2022-11-15T07:44:46.511Z,7.30
2022-11-15T07:47:13.646Z,7.40
2022-11-15T07:49:40.619Z,7.40
2022-11-15T07:52:07.596Z,7.40
2022-11-15T07:54:34.505Z,7.50
2022-11-15T07:57:06.884Z,7.50
2022-11-15T07:59:35.983Z,7.60
2022-11-15T08:02:03.205Z,7.70
2022-11-15T08:04:30.086Z,7.80
2022-11-15T08:06:58.351Z,7.90
2022-11-15T08:09:25.304Z,8.00
2022-11-15T08:11:52.174Z,8.20
2022-11-15T08:14:19.022Z,8.50
2022-11-15T08:16:45.864Z,8.90
2022-11-15T08:19:12.716Z,9.30
2022-11-15T08:21:39.533Z,10.20
2022-11-15T08:24:07.004Z,11.80
2022-11-15T08:26:33.796Z,13.70
2022-11-15T08:29:00.674Z,15.80
2022-11-15T08:31:27.518Z,17.70
2022-11-15T08:33:54.883Z,19.60
2022-11-15T08:36:21.852Z,20.60
2022-11-15T08:38:48.796Z,21.90
2022-11-15T08:41:26.599Z,22.70
2022-11-15T08:43:53.444Z,23.30
2022-11-15T08:46:20.293Z,23.30
2022-11-15T08:48:47.307Z,23.80
2022-11-15T08:51:14.246Z,24.30
2022-11-15T08:53:41.397Z,24.80
2022-11-15T08:56:10.034Z,24.50
2022-11-15T08:58:37.670Z,23.30
2022-11-15T09:01:06.029Z,23.10
2022-11-15T09:03:33.132Z,22.80
2022-11-15T09:06:01.724Z,22.50
2022-11-15T09:08:57.358Z,22.40
2022-11-15T09:11:21.393Z,22.80
2022-11-15T09:13:48.508Z,24.30
2022-11-15T09:16:16.319Z,25.10
2022-11-15T09:18:43.306Z,25.10
2022-11-15T09:21:10.503Z,25.20
2022-11-15T09:23:37.446Z,24.60
2022-11-15T09:26:05.964Z,24.10
2022-11-15T09:28:34.496Z,23.90
2022-11-15T09:31:03.514Z,23.70
2022-11-15T09:33:31.011Z,23.40
2022-11-15T09:36:06.870Z,22.20
2022-11-15T09:38:34.836Z,22.30
2022-11-15T09:41:13.819Z,22.40
2022-11-15T09:43:59.385Z,23.00
2022-11-15T09:46:48.214Z,23.40
2022-11-15T09:49:17.251Z,23.60
2022-11-15T09:51:48.240Z,24.00
2022-11-15T09:54:52.119Z,24.40
2022-11-15T09:57:33.062Z,25.10
2022-11-15T10:03:10.162Z,26.70
2022-11-15T10:05:44.488Z,28.00
2022-11-15T10:08:20.132Z,27.30
2022-11-15T10:11:00.550Z,27.30
2022-11-15T10:13:41.026Z,28.30
2022-11-15T10:16:36.936Z,28.80
2022-11-15T10:19:51.232Z,27.40
2022-11-15T10:22:23.471Z,26.80
2022-11-15T10:24:53.344Z,26.50
2022-11-15T10:27:20.842Z,25.70
2022-11-15T10:29:50.904Z,24.80
2022-11-15T10:32:20.305Z,24.30
2022-11-15T10:34:49.010Z,23.60
2022-11-15T10:37:27.769Z,23.30
2022-11-15T10:40:23.982Z,23.10
2022-11-15T10:43:15.544Z,22.40
2022-11-15T10:45:43.036Z,21.70
2022-11-15T10:48:12.821Z,20.90
2022-11-15T10:50:41.787Z,20.20
2022-11-15T10:53:34.589Z,19.60
2022-11-15T10:56:09.308Z,19.20
2022-11-15T10:58:45.514Z,19.10
2022-11-15T11:01:24.090Z,18.70
2022-11-15T11:04:10.458Z,18.30
2022-11-15T11:07:20.806Z,18.00
2022-11-15T11:09:58.473Z,18.00
2022-11-15T11:12:33.490Z,17.80
2022-11-15T11:15:02.650Z,17.70
2022-11-15T11:17:40.075Z,17.30
2022-11-15T11:20:28.584Z,17.00
2022-11-15T11:23:15.476Z,17.00
2022-11-15T11:26:19.035Z,17.00
2022-11-15T11:29:21.120Z,16.80
2022-11-15T11:32:09.928Z,16.80
2022-11-15T11:35:07.862Z,16.60
2022-11-15T11:37:55.662Z,16.50
2022-11-15T11:40:25.270Z,16.40
2022-11-15T11:43:00.308Z,16.40
2022-11-15T11:46:06.160Z,16.40
2022-11-15T11:49:14.703Z,16.50
2022-11-15T11:51:51.833Z,16.50
2022-11-15T11:54:47.779Z,16.50
2022-11-15T11:57:24.852Z,16.40
2022-11-15T11:59:57.024Z,16.40
2022-11-15T12:02:35.714Z,16.20
2022-11-15T12:05:10.998Z,16.10
2022-11-15T12:07:40.568Z,16.00
2022-11-15T12:10:23.232Z,15.90
2022-11-15T12:13:05.944Z,15.80
2022-11-15T12:16:19.030Z,15.70
2022-11-15T12:18:52.377Z,15.60
2022-11-15T12:21:51.346Z,15.50
2022-11-15T12:24:40.776Z,15.50
2022-11-15T12:27:29.192Z,15.40
2022-11-15T12:30:00.293Z,15.40
2022-11-15T12:32:36.849Z,15.30
2022-11-15T12:35:07.500Z,15.30
2022-11-15T12:37:38.701Z,15.30
2022-11-15T12:40:19.492Z,15.30
2022-11-15T12:43:14.033Z,15.30
2022-11-15T12:45:43.522Z,15.30
2022-11-15T12:48:19.577Z,15.30
2022-11-15T12:50:55.147Z,15.40
2022-11-15T12:53:25.037Z,15.40
2022-11-15T12:56:16.038Z,15.40
2022-11-15T12:58:58.683Z,15.40
2022-11-15T13:01:35.079Z,15.40
2022-11-15T13:04:20.145Z,15.40
2022-11-15T13:06:48.498Z,15.50
2022-11-15T13:09:33.356Z,15.50
2022-11-15T13:12:04.486Z,15.50
2022-11-15T13:14:43.316Z,15.40
2022-11-15T13:17:42.418Z,15.40
2022-11-15T13:20:09.239Z,15.50
2022-11-15T13:23:00.553Z,15.50
2022-11-15T13:26:02.057Z,15.50
2022-11-15T13:28:32.314Z,15.50
2022-11-15T13:31:02.524Z,15.50
2022-11-15T13:33:35.971Z,15.50
2022-11-15T13:36:23.063Z,15.50
2022-11-15T13:39:15.213Z,15.50
2022-11-15T13:41:51.110Z,15.60
2022-11-15T13:44:23.503Z,15.70
2022-11-15T13:47:01.140Z,15.70
2022-11-15T13:49:32.384Z,15.80
2022-11-15T13:52:01.393Z,15.80
2022-11-15T13:54:36.510Z,15.80
2022-11-15T13:57:11.252Z,15.70
2022-11-15T13:59:55.780Z,15.70
2022-11-15T14:02:28.012Z,15.60
2022-11-15T14:05:20.059Z,15.50
2022-11-15T14:08:00.158Z,15.40
2022-11-15T14:10:31.043Z,15.40
2022-11-15T14:12:59.157Z,15.30
2022-11-15T14:15:40.802Z,15.30
2022-11-15T14:18:07.639Z,15.30
2022-11-15T14:20:37.747Z,15.30
2022-11-15T14:23:25.856Z,15.20
2022-11-15T14:25:58.051Z,15.20
2022-11-15T14:28:24.832Z,15.30
2022-11-15T14:30:57.401Z,15.30
2022-11-15T14:33:35.698Z,15.30
2022-11-15T14:36:14.239Z,15.20
2022-11-15T14:38:43.779Z,15.10
2022-11-15T14:41:29.000Z,15.10
2022-11-15T14:43:55.805Z,15.00
2022-11-15T14:46:22.622Z,14.90
2022-11-15T14:48:49.709Z,14.80
2022-11-15T14:51:19.790Z,14.70
2022-11-15T14:53:47.638Z,14.60
2022-11-15T14:56:15.897Z,14.50
2022-11-15T14:58:42.778Z,14.40
2022-11-15T15:01:24.372Z,14.30
2022-11-15T15:03:53.091Z,14.30
2022-11-15T15:06:20.880Z,14.20
2022-11-15T15:08:49.470Z,14.20
2022-11-15T15:11:21.546Z,14.10
2022-11-15T15:13:48.577Z,14.10
2022-11-15T15:16:15.471Z,14.00
2022-11-15T15:18:42.347Z,13.90
2022-11-15T15:21:23.438Z,13.90
2022-11-15T15:23:50.635Z,13.80
2022-11-15T15:26:17.605Z,13.80
2022-11-15T15:28:44.585Z,13.80
2022-11-15T15:31:11.945Z,13.70
2022-11-15T15:33:38.972Z,13.70
2022-11-15T15:36:06.131Z,13.60
2022-11-15T15:38:33.239Z,13.60
2022-11-15T15:41:02.948Z,13.50
2022-11-15T15:43:29.826Z,13.50
2022-11-15T15:45:56.692Z,13.40
2022-11-15T15:48:23.500Z,13.40
2022-11-15T15:50:50.421Z,13.30
2022-11-15T15:53:18.332Z,13.30
2022-11-15T15:55:45.234Z,13.30
2022-11-15T15:58:12.066Z,13.30
2022-11-15T16:00:39.841Z,13.20
2022-11-15T16:03:06.669Z,13.20
2022-11-15T16:05:33.493Z,13.20
2022-11-15T16:08:00.442Z,13.10
2022-11-15T16:10:29.920Z,13.10
2022-11-15T16:12:58.232Z,13.10
2022-11-15T16:15:27.294Z,13.10
2022-11-15T16:17:56.633Z,13.10
2022-11-15T16:20:38.520Z,13.10
2022-11-15T16:23:10.335Z,13.10
2022-11-15T16:25:45.572Z,13.00
2022-11-15T16:28:23.509Z,13.00
2022-11-15T16:30:59.981Z,13.00
2022-11-15T16:33:26.817Z,13.00
2022-11-15T16:35:53.758Z,13.00
2022-11-15T16:38:20.661Z,13.00
2022-11-15T16:40:47.857Z,13.00
2022-11-15T16:43:15.362Z,12.90
2022-11-15T16:45:42.304Z,12.90
2022-11-15T16:48:26.776Z,12.90
2022-11-15T16:50:58.098Z,12.90
2022-11-15T16:53:26.520Z,12.80
2022-11-15T16:55:54.895Z,12.80
2022-11-15T16:58:22.015Z,12.80
2022-11-15T17:00:54.029Z,12.80
2022-11-15T17:03:22.497Z,12.80
2022-11-15T17:05:49.864Z,12.80
2022-11-15T17:08:16.790Z,12.80
2022-11-15T17:10:44.279Z,12.80
2022-11-15T17:13:14.717Z,12.80
2022-11-15T17:15:41.560Z,12.70
2022-11-15T17:18:11.948Z,12.70
2022-11-15T17:20:40.653Z,12.70
2022-11-15T17:23:12.249Z,12.70
2022-11-15T17:25:39.094Z,12.70
2022-11-15T17:28:05.937Z,12.70
2022-11-15T17:30:32.700Z,12.70
2022-11-15T17:33:01.083Z,12.70
2022-11-15T17:35:27.878Z,12.70
2022-11-15T17:37:54.712Z,12.70
2022-11-15T17:40:21.507Z,12.60
2022-11-15T17:42:48.375Z,12.60
2022-11-15T17:45:15.278Z,12.60
2022-11-15T17:47:42.117Z,12.60
2022-11-15T17:50:09.933Z,12.50
2022-11-15T17:52:36.809Z,12.50
2022-11-15T17:55:03.837Z,12.50
2022-11-15T17:57:30.707Z,12.50
2022-11-15T17:59:57.504Z,12.50
2022-11-15T18:02:24.365Z,12.50
2022-11-15T18:04:51.256Z,12.50
2022-11-15T18:07:18.096Z,12.50
2022-11-15T18:09:45.530Z,12.50
2022-11-15T18:12:12.538Z,12.50
2022-11-15T18:14:39.651Z,12.40
2022-11-15T18:17:06.881Z,12.40
2022-11-15T18:19:33.971Z,12.40
2022-11-15T18:22:01.799Z,12.40
2022-11-15T18:24:31.377Z,12.40
2022-11-15T18:27:00.131Z,12.40
2022-11-15T18:29:27.781Z,12.30
2022-11-15T18:31:58.958Z,12.30
2022-11-15T18:34:32.041Z,12.30
2022-11-15T18:36:59.857Z,12.30
2022-11-15T18:39:26.833Z,12.30
2022-11-15T18:41:53.655Z,12.30
2022-11-15T18:44:20.508Z,12.20
2022-11-15T18:46:47.522Z,12.20
2022-11-15T18:49:16.636Z,12.20
2022-11-15T18:51:43.937Z,12.20
2022-11-15T18:54:13.622Z,12.20
2022-11-15T18:56:41.480Z,12.10
2022-11-15T18:59:08.833Z,12.10
2022-11-15T19:01:40.564Z,12.20
2022-11-15T19:04:17.528Z,12.10
2022-11-15T19:06:47.268Z,12.10
2022-11-15T19:09:16.300Z,12.10
2022-11-15T19:11:44.576Z,12.10
2022-11-15T19:14:13.865Z,12.10
2022-11-15T19:16:46.378Z,12.10
2022-11-15T19:19:18.869Z,12.10
2022-11-15T19:21:45.830Z,12.10
2022-11-15T19:24:12.923Z,12.10
2022-11-15T19:26:40.132Z,12.10
2022-11-15T19:29:10.376Z,12.00
2022-11-15T19:31:37.786Z,12.10
2022-11-15T19:34:06.214Z,12.10
2022-11-15T19:36:39.438Z,12.10
2022-11-15T19:39:09.991Z,12.00
2022-11-15T19:41:39.191Z,12.00
2022-11-15T19:44:06.967Z,12.00
2022-11-15T19:46:34.685Z,12.00
2022-11-15T19:49:01.823Z,12.00
2022-11-15T19:51:30.959Z,12.00
2022-11-15T19:54:01.443Z,12.00
2022-11-15T19:56:28.340Z,12.00
2022-11-15T19:58:56.431Z,12.10
2022-11-15T20:01:31.839Z,12.00
2022-11-15T20:04:00.137Z,12.00
2022-11-15T20:06:29.871Z,12.00
2022-11-15T20:08:57.729Z,12.00
2022-11-15T20:11:24.929Z,12.00
2022-11-15T20:13:52.221Z,12.00
2022-11-15T20:16:21.538Z,12.00
2022-11-15T20:18:49.584Z,12.00
2022-11-15T20:21:17.153Z,12.00
2022-11-15T20:23:44.433Z,11.90
2022-11-15T20:26:11.867Z,11.90
2022-11-15T20:28:40.219Z,11.90
2022-11-15T20:31:08.102Z,11.90
2022-11-15T20:33:35.231Z,11.90
2022-11-15T20:36:08.226Z,11.90
2022-11-15T20:38:35.338Z,11.80
2022-11-15T20:41:02.426Z,11.80
2022-11-15T20:43:29.754Z,11.80
2022-11-15T20:45:56.598Z,11.80
2022-11-15T20:48:23.509Z,11.80
2022-11-15T20:50:50.360Z,11.80
2022-11-15T20:53:19.882Z,11.80
2022-11-15T20:55:48.752Z,11.80
2022-11-15T20:58:17.377Z,11.80
2022-11-15T21:00:45.820Z,11.70
2022-11-15T21:03:13.952Z,11.70
2022-11-15T21:05:43.239Z,11.70
2022-11-15T21:08:11.366Z,11.70
2022-11-15T21:10:57.092Z,11.70
2022-11-15T21:13:23.944Z,11.60
2022-11-15T21:15:51.104Z,11.60
2022-11-15T21:18:17.925Z,11.60
2022-11-15T21:20:44.957Z,11.60
2022-11-15T21:23:12.362Z,11.60
2022-11-15T21:25:39.195Z,11.60
2022-11-15T21:28:06.019Z,11.60
2022-11-15T21:30:32.852Z,11.60
2022-11-15T21:32:59.639Z,11.60
2022-11-15T21:35:26.505Z,11.50
2022-11-15T21:37:56.709Z,11.50
2022-11-15T21:40:25.029Z,11.50
2022-11-15T21:42:51.848Z,11.50
2022-11-15T21:45:18.628Z,11.50
2022-11-15T21:47:46.594Z,11.50
2022-11-15T21:50:14.205Z,11.50
2022-11-15T21:52:41.614Z,11.50
2022-11-15T21:55:09.094Z,11.50
2022-11-15T21:57:35.990Z,11.50
2022-11-15T22:00:21.123Z,11.40
2022-11-15T22:02:48.151Z,11.50
2022-11-15T22:05:15.033Z,11.40
2022-11-15T22:07:41.931Z,11.40
2022-11-15T22:10:09.105Z,11.40
2022-11-15T22:12:36.213Z,11.40
2022-11-15T22:15:03.091Z,11.40
2022-11-15T22:17:49.914Z,11.40
2022-11-15T22:20:43.011Z,11.40
2022-11-15T22:23:04.657Z,11.40
2022-11-15T22:25:32.486Z,11.40
2022-11-15T22:27:59.375Z,11.40
2022-11-15T22:30:26.347Z,11.40
2022-11-15T22:32:53.239Z,11.40
2022-11-15T22:35:20.068Z,11.40
2022-11-15T22:37:46.954Z,11.40
2022-11-15T22:40:13.824Z,11.30
2022-11-15T22:42:40.705Z,11.30
2022-11-15T22:45:07.830Z,11.30
2022-11-15T22:47:34.756Z,11.30
2022-11-15T22:50:01.707Z,11.30
2022-11-15T22:52:28.634Z,11.30
2022-11-15T22:54:55.509Z,11.20
2022-11-15T22:57:22.448Z,11.30
2022-11-15T22:59:49.359Z,11.30
2022-11-15T23:02:16.218Z,11.30
2022-11-15T23:04:43.187Z,11.30
2022-11-15T23:07:10.121Z,11.20
2022-11-15T23:09:37.166Z,11.20
2022-11-15T23:12:22.610Z,11.30
2022-11-15T23:14:49.530Z,11.30
2022-11-15T23:17:16.471Z,11.30
2022-11-15T23:19:43.312Z,11.30
2022-11-15T23:22:28.691Z,11.20
2022-11-15T23:24:55.943Z,11.20
2022-11-15T23:27:23.943Z,11.20
2022-11-15T23:30:09.476Z,11.20
2022-11-15T23:32:54.825Z,11.20
2022-11-15T23:35:21.740Z,11.20
2022-11-15T23:37:48.704Z,11.20
2022-11-15T23:40:15.940Z,11.20
2022-11-15T23:42:42.820Z,11.20
2022-11-15T23:45:10.017Z,11.20
2022-11-15T23:47:36.999Z,11.20
2022-11-15T23:50:04.566Z,11.20
2022-11-15T23:52:31.515Z,11.20
2022-11-15T23:54:58.499Z,11.20
2022-11-15T23:57:25.357Z,11.20
2022-11-15T23:59:52.284Z,11.20
